Time;durP1;ratioP1;P1;durP2;ratioP2;P2;SDS_P1;SDS_P2;PMS_P1;PMS_P2;Temp;Humidity;BMP_temperature;BMP_pressure;BME280_temperature;BME280_humidity;BME280_pressure;Samples;Min_cycle;Max_cycle;Signal;HPM_P1;HPM_P2
2021/11/14 00:00:00;;;;;;;54.30;29.13;;;;;;;7.60;100.00;101601.94;10541594;28;20059;-76
2021/11/14 00:05:03;;;;;;;48.17;27.42;;;;;;;7.59;100.00;101607.94;10535704;28;20063;-76
2021/11/14 00:10:05;;;;;;;59.20;31.15;;;;;;;7.62;100.00;101620.94;10548010;28;20052;-76
2021/11/14 00:15:08;;;;;;;57.28;30.63;;;;;;;7.62;100.00;101608.06;10535885;28;20055;-76
2021/11/14 00:20:12;;;;;;;65.63;31.63;;;;;;;7.60;100.00;101605.44;10535682;28;20046;-76
2021/11/14 00:25:14;;;;;;;61.10;29.98;;;;;;;7.64;100.00;101620.16;10535699;28;20052;-76
2021/11/14 00:30:16;;;;;;;87.53;37.63;;;;;;;7.63;100.00;101626.13;10535799;28;20078;-76
2021/11/14 00:35:20;;;;;;;89.55;35.67;;;;;;;7.61;100.00;101637.22;10561446;28;20488;-76
2021/11/14 00:40:28;;;;;;;79.43;36.63;;;;;;;7.61;100.00;101635.50;10517685;28;20044;-76
2021/11/14 00:45:31;;;;;;;62.28;30.98;;;;;;;7.61;100.00;101638.09;10536033;28;20064;-76
2021/11/14 00:50:34;;;;;;;85.90;38.75;;;;;;;7.64;100.00;101627.00;10535687;28;20048;-75
2021/11/14 00:55:36;;;;;;;72.28;35.30;;;;;;;7.66;100.00;101638.28;10535596;28;20048;-76
2021/11/14 01:00:39;;;;;;;89.93;40.00;;;;;;;7.66;100.00;101636.56;10541996;28;20059;-76
2021/11/14 01:05:42;;;;;;;93.68;41.53;;;;;;;7.67;100.00;101583.38;10524281;28;20044;-76
2021/11/14 01:10:48;;;;;;;108.00;45.05;;;;;;;7.70;100.00;101574.03;10546457;28;20040;-76
2021/11/14 01:15:51;;;;;;;90.63;43.33;;;;;;;7.73;100.00;101575.00;10523648;28;20051;-76
2021/11/14 01:20:57;;;;;;;99.07;43.00;;;;;;;7.74;100.00;101580.19;10557168;28;20086;-76
2021/11/14 01:25:59;;;;;;;110.50;48.83;;;;;;;7.72;100.00;101581.84;10583696;28;20491;-76
2021/11/14 01:31:01;;;;;;;106.40;47.65;;;;;;;7.76;100.00;101585.41;10583351;28;20388;-76
2021/11/14 01:36:05;;;;;;;111.03;48.67;;;;;;;7.75;100.00;101586.22;10570945;28;20526;-76
2021/11/14 01:41:11;;;;;;;111.10;49.33;;;;;;;7.72;100.00;101597.31;10541998;28;20090;-76
2021/11/14 01:46:14;;;;;;;135.83;55.60;;;;;;;7.70;100.00;101599.78;10541233;28;20051;-76
2021/11/14 01:51:15;;;;;;;128.75;49.55;;;;;;;7.68;100.00;101601.44;10540274;28;20551;-76
2021/11/14 01:56:18;;;;;;;157.75;56.55;;;;;;;7.67;100.00;101598.81;10547515;28;20058;-76
2021/11/14 02:01:25;;;;;;;255.70;69.38;;;;;;;7.63;100.00;101600.38;10522406;28;20052;-75
2021/11/14 02:06:27;;;;;;;272.63;71.60;;;;;;;7.61;100.00;101614.91;10541116;28;20492;-76
2021/11/14 02:11:29;;;;;;;217.60;65.93;;;;;;;7.58;100.00;101611.31;10563555;28;20484;-76
2021/11/14 02:16:31;;;;;;;240.25;67.50;;;;;;;7.55;100.00;101617.25;10539770;28;20087;-76
2021/11/14 02:21:33;;;;;;;280.98;71.32;;;;;;;7.55;100.00;101621.53;10539844;28;20051;-76
2021/11/14 02:26:35;;;;;;;246.35;71.00;;;;;;;7.56;100.00;101637.03;10539503;28;20424;-76
2021/11/14 02:31:36;;;;;;;168.40;57.45;;;;;;;7.58;100.00;101631.91;10538755;28;20046;-76
2021/11/14 02:36:39;;;;;;;154.85;52.22;;;;;;;7.57;100.00;101637.91;10538472;28;20058;-76
2021/11/14 02:41:40;;;;;;;246.32;67.65;;;;;;;7.53;100.00;101633.44;10540040;28;20052;-76
2021/11/14 02:46:42;;;;;;;246.65;70.22;;;;;;;7.53;100.00;101646.31;10538294;28;20044;-76
2021/11/14 02:51:44;;;;;;;231.98;68.65;;;;;;;7.54;100.00;101654.09;10538522;28;20131;-76
2021/11/14 02:56:46;;;;;;;119.03;52.88;;;;;;;7.54;100.00;101655.78;10537808;28;20055;-76
2021/11/14 03:01:53;;;;;;;110.93;52.15;;;;;;;7.54;100.00;101656.66;10519907;28;20044;-76
2021/11/14 03:06:57;;;;;;;106.72;47.85;;;;;;;7.53;100.00;101659.19;10523060;28;20052;-76
2021/11/14 03:12:00;;;;;;;109.20;48.95;;;;;;;7.53;100.00;101670.34;10560800;28;20050;-76
2021/11/14 03:17:01;;;;;;;96.82;46.75;;;;;;;7.53;100.00;101672.06;10519113;28;20055;-76
2021/11/14 03:22:03;;;;;;;91.28;45.30;;;;;;;7.53;100.00;101678.06;10566837;28;20529;-76
2021/11/14 03:27:05;;;;;;;99.32;46.15;;;;;;;7.50;100.00;101670.25;10578744;28;20051;-76
2021/11/14 03:32:12;;;;;;;101.60;47.38;;;;;;;7.53;100.00;101678.06;10560548;28;20491;-76
2021/11/14 03:37:19;;;;;;;101.82;47.85;;;;;;;7.54;100.00;101673.81;10557107;28;20056;-76
2021/11/14 03:42:21;;;;;;;103.53;48.25;;;;;;;7.54;100.00;101677.25;10536239;28;20495;-76
2021/11/14 03:47:22;;;;;;;103.90;48.40;;;;;;;7.56;100.00;101682.50;10550287;28;20060;-76
2021/11/14 03:52:25;;;;;;;103.40;49.83;;;;;;;7.58;100.00;101698.88;10535967;28;20052;-76
2021/11/14 03:57:26;;;;;;;112.50;47.78;;;;;;;7.59;100.00;101695.47;10518272;28;20056;-76
2021/11/14 04:02:30;;;;;;;107.10;50.08;;;;;;;7.58;100.00;101707.47;10526396;28;20399;-76
2021/11/14 04:07:31;;;;;;;106.57;49.38;;;;;;;7.59;100.00;101706.66;10577760;28;20044;-76
2021/11/14 04:12:33;;;;;;;109.38;49.83;;;;;;;7.61;100.00;101709.31;10536577;28;20252;-76
2021/11/14 04:17:36;;;;;;;126.88;52.90;;;;;;;7.61;100.00;101712.75;10536223;28;20127;-76
2021/11/14 04:22:39;;;;;;;104.78;48.13;;;;;;;7.62;100.00;101716.22;10536036;28;20123;-76
2021/11/14 04:27:41;;;;;;;123.28;50.85;;;;;;;7.62;100.00;101711.94;10535469;28;20494;-76
2021/11/14 04:32:43;;;;;;;120.80;52.97;;;;;;;7.61;100.00;101717.91;10522766;28;20054;-76
2021/11/14 04:37:48;;;;;;;112.90;49.95;;;;;;;7.61;100.00;101714.47;10570728;28;20058;-76
2021/11/14 04:42:51;;;;;;;124.07;53.45;;;;;;;7.62;100.00;101724.81;10585305;28;20134;-76
2021/11/14 04:47:53;;;;;;;115.18;48.70;;;;;;;7.64;100.00;101730.88;10585284;28;20051;-76
2021/11/14 04:52:55;;;;;;;127.68;53.92;;;;;;;7.66;100.00;101733.56;10584950;28;20051;-76
2021/11/14 04:57:57;;;;;;;120.90;52.95;;;;;;;7.65;100.00;101732.66;10584213;28;20063;-76
2021/11/14 05:02:58;;;;;;;120.32;53.70;;;;;;;7.67;100.00;101731.03;10584348;28;20058;-76
2021/11/14 05:08:00;;;;;;;123.07;54.00;;;;;;;7.67;100.00;101737.88;10566346;28;20058;-76
2021/11/14 05:13:04;;;;;;;124.05;52.13;;;;;;;7.70;100.00;101749.16;10557189;28;20059;-76
2021/11/14 05:18:06;;;;;;;127.63;55.92;;;;;;;7.72;100.00;101753.53;10541724;28;20056;-76
2021/11/14 05:23:08;;;;;;;129.18;54.58;;;;;;;7.73;100.00;101766.47;10542427;28;20044;-76
2021/11/14 05:28:10;;;;;;;132.00;55.42;;;;;;;7.73;100.00;101765.59;10523690;28;20052;-76
2021/11/14 05:33:12;;;;;;;131.90;53.97;;;;;;;7.74;100.00;101775.06;10540973;28;20057;-76
2021/11/14 05:38:14;;;;;;;127.90;54.88;;;;;;;7.73;100.00;101774.19;10567881;28;20140;-76
2021/11/14 05:43:16;;;;;;;120.85;53.75;;;;;;;7.75;100.00;101776.81;10554310;28;20043;-76
2021/11/14 05:48:17;;;;;;;150.70;58.53;;;;;;;7.77;100.00;101780.31;10567024;28;20070;-76
2021/11/14 05:53:19;;;;;;;128.15;56.45;;;;;;;7.79;100.00;101792.47;10563262;28;20043;-76
2021/11/14 05:58:26;;;;;;;128.00;54.22;;;;;;;7.81;100.00;101789.94;10577010;28;20052;-76
2021/11/14 06:08:29;;;;;;;135.20;56.90;;;;;;;7.84;100.00;101805.53;10542052;28;20064;-76
2021/11/14 06:13:34;;;;;;;129.23;56.40;;;;;;;7.85;100.00;101807.28;10546666;28;20058;-76
2021/11/14 06:18:35;;;;;;;129.75;54.65;;;;;;;7.87;100.00;101814.25;10552232;28;20052;-76
2021/11/14 06:23:37;;;;;;;132.98;55.15;;;;;;;7.88;100.00;101822.84;10583397;28;20051;-76
2021/11/14 06:28:39;;;;;;;125.43;52.75;;;;;;;7.90;100.00;101828.97;10551154;28;20055;-76
2021/11/14 06:33:41;;;;;;;117.95;53.83;;;;;;;7.90;100.00;101834.13;10550100;28;20371;-76
2021/11/14 06:38:42;;;;;;;129.70;53.55;;;;;;;7.90;100.00;101844.44;10564762;28;20048;-77
2021/11/14 06:43:44;;;;;;;112.60;51.75;;;;;;;7.90;100.00;101858.19;10572053;28;20040;-76
2021/11/14 06:48:45;;;;;;;111.80;47.90;;;;;;;7.92;100.00;101864.28;10564314;28;20047;-76
2021/11/14 06:53:47;;;;;;;114.63;51.78;;;;;;;7.92;100.00;101871.13;10580981;28;20055;-76
2021/11/14 06:58:49;;;;;;;108.60;48.20;;;;;;;7.93;100.00;101878.91;10555142;28;20048;-76
2021/11/14 07:03:50;;;;;;;103.88;47.05;;;;;;;7.94;100.00;101882.38;10560617;28;20047;-76
2021/11/14 07:08:52;;;;;;;104.35;46.03;;;;;;;7.96;100.00;101897.09;10548243;28;20412;-77
2021/11/14 07:13:55;;;;;;;91.13;44.42;;;;;;;7.95;100.00;101904.78;10550466;28;20044;-76
2021/11/14 07:18:57;;;;;;;92.97;42.22;;;;;;;7.98;100.00;102023.41;10572259;28;20040;-76
2021/11/14 07:23:59;;;;;;;92.28;41.42;;;;;;;7.96;100.00;102025.91;10561141;28;20067;-76
2021/11/14 07:29:01;;;;;;;83.28;37.72;;;;;;;7.96;100.00;102027.63;10556129;27;20044;-76
2021/11/14 07:34:02;;;;;;;81.43;37.40;;;;;;;7.97;100.00;102039.69;10547522;28;20407;-76
2021/11/14 07:39:04;;;;;;;82.65;36.60;;;;;;;7.97;100.00;102043.13;10561311;28;20058;-76
2021/11/14 07:44:06;;;;;;;76.22;38.13;;;;;;;7.94;100.00;102048.19;10535153;28;20411;-76
2021/11/14 07:49:07;;;;;;;70.18;33.97;;;;;;;7.97;100.00;102056.03;10547620;28;20044;-76
2021/11/14 07:54:09;;;;;;;75.07;35.10;;;;;;;7.99;100.00;102068.97;10546116;28;20066;-76
2021/11/14 07:59:11;;;;;;;73.78;34.13;;;;;;;8.03;100.00;102072.56;10577345;28;20051;-76
2021/11/14 08:04:13;;;;;;;71.20;32.78;;;;;;;8.04;100.00;102080.38;10576818;28;20048;-77
2021/11/14 08:09:15;;;;;;;66.97;32.33;;;;;;;8.04;100.00;102088.09;10585151;28;20055;-76
2021/11/14 08:14:17;;;;;;;67.00;32.97;;;;;;;8.04;100.00;102088.09;10523713;28;20454;-76
2021/11/14 08:19:19;;;;;;;59.33;30.58;;;;;;;8.10;100.00;102103.84;10562324;28;20051;-77
2021/11/14 08:24:20;;;;;;;56.35;28.65;;;;;;;8.10;100.00;102116.72;10547853;28;20399;-77
2021/11/14 08:29:22;;;;;;;63.60;30.02;;;;;;;8.11;100.00;102117.59;10585732;28;20043;-77
2021/11/14 08:34:24;;;;;;;62.50;31.17;;;;;;;8.13;100.00;102124.59;10567738;28;20047;-78
2021/11/14 08:39:25;;;;;;;57.70;29.50;;;;;;;8.15;100.00;102122.97;10545010;28;20052;-77
2021/11/14 08:44:28;;;;;;;66.00;31.02;;;;;;;8.15;100.00;102125.56;10553990;28;20652;-77
2021/11/14 08:49:30;;;;;;;55.65;30.02;;;;;;;8.20;100.00;102134.38;10584852;28;20059;-77
2021/11/14 08:54:31;;;;;;;57.60;26.17;;;;;;;8.23;100.00;102138.81;10584576;28;20047;-77
2021/11/14 08:59:33;;;;;;;52.80;26.67;;;;;;;8.21;100.00;102143.00;10584552;28;20055;-77
2021/11/14 09:04:35;;;;;;;48.15;23.55;;;;;;;8.22;100.00;102153.41;10584220;28;20047;-76
2021/11/14 09:09:37;;;;;;;49.38;25.42;;;;;;;8.28;100.00;102162.19;10565981;28;20059;-77
2021/11/14 09:14:38;;;;;;;50.90;24.80;;;;;;;8.30;100.00;102174.34;10544434;28;20411;-77
2021/11/14 09:19:41;;;;;;;49.80;25.73;;;;;;;8.31;100.00;102175.22;10548310;28;20074;-77
2021/11/14 09:24:43;;;;;;;49.10;24.77;;;;;;;8.35;100.00;102174.56;10572661;28;20074;-77
2021/11/14 09:29:45;;;;;;;43.47;25.02;;;;;;;8.37;100.00;102180.69;10548456;28;20063;-77
2021/11/14 09:34:47;;;;;;;55.92;26.30;;;;;;;8.40;100.00;102181.72;10561450;28;20667;-77
2021/11/14 09:39:48;;;;;;;51.30;24.90;;;;;;;8.43;100.00;102187.00;10561278;28;20048;-77
2021/11/14 09:44:51;;;;;;;47.20;24.08;;;;;;;8.49;100.00;102195.03;10560405;28;20052;-77
2021/11/14 09:49:57;;;;;;;47.83;26.63;;;;;;;8.49;100.00;102195.03;10541640;28;20054;-78
2021/11/14 09:55:02;;;;;;;44.77;24.90;;;;;;;8.53;100.00;102203.78;10576087;28;20041;-78
2021/11/14 10:00:08;;;;;;;45.33;24.60;;;;;;;8.59;100.00;102210.91;10581077;28;20293;-77
2021/11/14 10:05:12;;;;;;;44.08;23.23;;;;;;;8.62;100.00;102211.03;10582118;28;20051;-78
2021/11/14 10:10:14;;;;;;;40.58;22.65;;;;;;;8.63;100.00;102210.25;10577753;28;20056;-78
2021/11/14 10:15:36;;;;;;;45.10;23.00;;;;;;;8.66;100.00;102216.41;10557432;28;20464;-77
2021/11/14 10:20:39;;;;;;;36.40;22.35;;;;;;;8.65;100.00;102222.41;10572319;28;20048;-78
2021/11/14 10:25:41;;;;;;;43.47;23.60;;;;;;;8.73;100.00;102213.28;10533526;28;20423;-78
2021/11/14 10:30:46;;;;;;;39.30;23.35;;;;;;;8.71;100.00;102219.19;10559895;28;20407;-78
2021/11/14 10:35:51;;;;;;;32.25;20.58;;;;;;;8.78;100.00;102218.66;10542563;28;20130;-78
2021/11/14 10:41:00;;;;;;;33.25;19.75;;;;;;;8.77;100.00;102229.78;10524624;28;20138;-78
2021/11/14 10:46:02;;;;;;;36.55;21.73;;;;;;;8.75;100.00;102229.72;10531120;28;20056;-78
2021/11/14 10:51:04;;;;;;;35.47;21.73;;;;;;;8.76;100.00;102231.50;10545067;28;20116;-78
2021/11/14 10:56:11;;;;;;;36.75;20.48;;;;;;;8.77;100.00;102246.16;10546378;28;20052;-78
2021/11/14 11:01:15;;;;;;;32.42;19.70;;;;;;;8.81;100.00;102249.75;10520230;28;20058;-78
2021/11/14 11:06:26;;;;;;;34.95;20.15;;;;;;;8.97;100.00;102243.59;10538843;28;20412;-78
2021/11/14 11:11:28;;;;;;;36.00;21.25;;;;;;;8.89;100.00;102250.09;10553226;28;20051;-79
2021/11/14 11:16:32;;;;;;;35.53;21.13;;;;;;;8.91;100.00;102259.69;10541620;28;20062;-78
2021/11/14 11:21:40;;;;;;;32.80;20.08;;;;;;;8.93;100.00;102246.84;10534937;28;20130;-79
2021/11/14 11:26:54;;;;;;;32.90;20.55;;;;;;;9.03;100.00;102259.34;10549687;28;20084;-78
2021/11/14 11:31:56;;;;;;;39.20;20.35;;;;;;;9.02;100.00;102253.31;10558361;28;20050;-78
2021/11/14 11:36:58;;;;;;;37.30;21.83;;;;;;;9.12;100.00;102256.25;10538263;28;20048;-79
2021/11/14 11:42:00;;;;;;;30.35;19.88;;;;;;;8.99;100.00;102247.13;10565393;28;20430;-78
2021/11/14 11:47:24;;;;;;;34.20;21.40;;;;;;;9.05;100.00;102252.53;10522600;28;20048;-78
2021/11/14 11:52:26;;;;;;;35.35;20.05;;;;;;;9.14;100.00;102252.97;10547494;28;20051;-79
2021/11/14 11:57:28;;;;;;;34.72;21.20;;;;;;;9.10;100.00;102260.50;10527297;28;20108;-79
2021/11/14 12:02:30;;;;;;;31.70;20.00;;;;;;;9.16;100.00;102256.47;10513180;28;20443;-78
2021/11/14 12:07:34;;;;;;;33.50;20.73;;;;;;;9.22;100.00;102261.03;10547502;28;20052;-79
2021/11/14 12:12:55;;;;;;;30.77;19.23;;;;;;;9.27;100.00;102262.97;10539252;28;20047;-78
2021/11/14 12:17:56;;;;;;;39.10;23.10;;;;;;;9.25;100.00;102274.06;10536557;28;20056;-79
2021/11/14 12:23:18;;;;;;;34.65;20.52;;;;;;;9.27;100.00;102264.69;10518283;28;20044;-78
2021/11/14 12:28:23;;;;;;;33.13;20.13;;;;;;;9.30;100.00;102264.81;10547329;28;20055;-79
2021/11/14 12:33:29;;;;;;;32.72;20.20;;;;;;;9.36;100.00;102261.59;10546642;28;20047;-78
2021/11/14 12:38:32;;;;;;;33.05;19.70;;;;;;;9.45;100.00;102269.75;10544679;28;20507;-78
2021/11/14 12:43:43;;;;;;;33.97;19.52;;;;;;;9.44;100.00;102253.38;10531818;28;20048;-79
2021/11/14 12:48:47;;;;;;;32.72;18.73;;;;;;;9.45;100.00;102265.47;10559250;28;20101;-79
2021/11/14 12:54:10;;;;;;;33.28;19.67;;;;;;;9.39;100.00;102265.19;10553158;28;20107;-79
2021/11/14 12:59:22;;;;;;;31.35;19.77;;;;;;;9.40;100.00;102277.28;10539580;28;20056;-79
2021/11/14 13:04:43;;;;;;;35.15;21.10;;;;;;;9.38;100.00;102276.34;10557192;28;20044;-80
2021/11/14 13:09:46;;;;;;;31.83;19.67;;;;;;;9.42;100.00;102269.63;10525837;28;20066;-79
2021/11/14 13:14:51;;;;;;;29.17;18.33;;;;;;;9.41;100.00;102267.84;10539248;28;20132;-80
2021/11/14 13:19:55;;;;;;;27.33;18.40;;;;;;;9.40;100.00;102276.41;10542937;28;20048;-80
2021/11/14 13:25:04;;;;;;;33.40;19.20;;;;;;;9.46;100.00;102279.25;10524848;28;20218;-80
2021/11/14 13:30:06;;;;;;;32.35;19.50;;;;;;;9.48;100.00;102281.09;10542474;28;20060;-79
2021/11/14 13:35:08;;;;;;;30.67;19.63;;;;;;;9.44;100.00;102274.03;10555740;28;20047;-80
2021/11/14 13:40:13;;;;;;;28.45;18.33;;;;;;;9.45;100.00;102278.38;10547365;28;20056;-79
2021/11/14 13:45:22;;;;;;;29.33;18.30;;;;;;;9.42;100.00;102278.25;10537455;28;20054;-79
2021/11/14 13:50:24;;;;;;;30.25;17.15;;;;;;;9.44;100.00;102276.63;10569799;28;20086;-79
2021/11/14 13:55:26;;;;;;;25.15;17.63;;;;;;;9.40;100.00;102277.28;10567254;28;20049;-80
2021/11/14 14:00:28;;;;;;;28.00;17.95;;;;;;;9.43;100.00;102282.59;10566436;28;20056;-80
2021/11/14 14:05:30;;;;;;;25.98;16.90;;;;;;;9.44;100.00;102279.19;10554025;28;20047;-80
2021/11/14 14:10:32;;;;;;;27.65;18.25;;;;;;;9.35;100.00;102290.81;10564684;28;20055;-80
2021/11/14 14:15:40;;;;;;;25.90;16.58;;;;;;;9.36;100.00;102295.16;10552734;28;20066;-79
2021/11/14 14:20:43;;;;;;;26.25;17.33;;;;;;;9.27;100.00;102290.50;10545500;28;20053;-79
2021/11/14 14:25:45;;;;;;;30.08;17.17;;;;;;;9.27;100.00;102293.97;10544702;28;20047;-79
2021/11/14 14:30:48;;;;;;;23.95;16.02;;;;;;;9.27;100.00;102291.38;10539846;28;20058;-79
2021/11/14 14:35:58;;;;;;;29.35;18.83;;;;;;;9.20;100.00;102294.53;10532783;28;20048;-80
2021/11/14 14:41:02;;;;;;;31.58;18.85;;;;;;;9.14;100.00;102285.63;10537438;28;20108;-79
2021/11/14 14:46:09;;;;;;;27.55;16.85;;;;;;;9.06;100.00;102305.03;10555300;28;20070;-79
2021/11/14 14:51:15;;;;;;;30.52;18.95;;;;;;;8.96;100.00;102329.56;10577687;28;20052;-79
2021/11/14 14:56:21;;;;;;;29.63;17.25;;;;;;;8.96;100.00;102329.56;10549778;28;20056;-79
2021/11/14 15:01:33;;;;;;;30.15;19.23;;;;;;;8.91;100.00;102344.84;10538856;28;20477;-80
2021/11/14 15:06:37;;;;;;;30.55;20.02;;;;;;;8.93;100.00;102345.78;10547631;28;20047;-79
2021/11/14 15:11:39;;;;;;;29.77;18.85;;;;;;;8.86;100.00;102338.59;10557553;28;20044;-79
2021/11/14 15:16:40;;;;;;;32.97;21.08;;;;;;;8.86;100.00;102340.28;10548435;28;20053;-79
2021/11/14 15:21:42;;;;;;;37.88;22.08;;;;;;;8.87;100.00;102348.09;10521714;28;20134;-79
2021/11/14 15:26:43;;;;;;;34.03;22.33;;;;;;;8.84;100.00;102350.53;10553103;28;20071;-79
2021/11/14 15:31:45;;;;;;;38.78;22.92;;;;;;;8.81;100.00;102346.94;10549887;28;20162;-79
2021/11/14 15:36:46;;;;;;;45.40;25.10;;;;;;;8.81;100.00;102354.69;10547811;28;20074;-79
2021/11/14 15:41:48;;;;;;;42.80;25.45;;;;;;;8.78;100.00;102373.47;10551287;28;20501;-79
2021/11/14 15:46:50;;;;;;;41.90;23.27;;;;;;;8.77;100.00;102375.16;10538134;28;20056;-83
2021/11/14 15:51:51;;;;;;;43.50;26.40;;;;;;;8.73;100.00;102377.53;10545852;28;20402;-83
2021/11/14 15:56:54;;;;;;;46.53;26.95;;;;;;;8.71;100.00;102387.78;10542303;28;20060;-83
2021/11/14 16:01:55;;;;;;;44.40;26.48;;;;;;;8.69;100.00;102398.84;10530466;28;20048;-83
2021/11/14 16:06:57;;;;;;;47.33;27.35;;;;;;;8.64;100.00;102398.63;10520890;28;20062;-83
2021/11/14 16:11:59;;;;;;;51.92;29.23;;;;;;;8.66;100.00;102409.91;10536321;28;20040;-83
2021/11/14 16:17:01;;;;;;;48.60;28.38;;;;;;;8.62;100.00;102408.00;10534231;28;20047;-83
2021/11/14 16:22:03;;;;;;;50.20;28.75;;;;;;;8.63;100.00;102416.63;10560389;28;20050;-83
2021/11/14 16:27:05;;;;;;;45.72;28.67;;;;;;;8.58;100.00;102418.09;10576362;28;20056;-83
2021/11/14 16:32:07;;;;;;;49.45;31.65;;;;;;;8.57;100.00;102421.50;10560540;28;20051;-83
2021/11/14 16:37:08;;;;;;;50.05;29.08;;;;;;;8.56;100.00;102437.75;10565848;28;20048;-83
2021/11/14 16:42:12;;;;;;;55.20;31.83;;;;;;;8.56;100.00;102441.22;10540478;28;20396;-83
2021/11/14 16:47:14;;;;;;;57.30;30.33;;;;;;;8.53;100.00;102441.06;10545040;28;20419;-82
2021/11/14 16:52:16;;;;;;;60.88;32.10;;;;;;;8.53;100.00;102440.19;10542818;28;20531;-84
2021/11/14 16:57:17;;;;;;;56.25;30.85;;;;;;;8.50;100.00;102451.22;10569750;28;20081;-82
2021/11/14 17:02:19;;;;;;;53.00;31.30;;;;;;;8.47;100.00;102453.69;10556208;28;20052;-82
2021/11/14 17:07:21;;;;;;;61.85;31.75;;;;;;;8.49;100.00;102457.19;10556188;28;20052;-82
2021/11/14 17:12:22;;;;;;;58.30;30.58;;;;;;;8.49;100.00;102452.03;10544932;28;20063;-82
2021/11/14 17:17:24;;;;;;;62.97;33.25;;;;;;;8.46;100.00;102457.06;10538769;28;20055;-83
2021/11/14 17:22:26;;;;;;;54.92;31.20;;;;;;;8.43;100.00;102456.91;10553087;28;20052;-83
2021/11/14 17:27:27;;;;;;;56.25;31.17;;;;;;;8.37;100.00;102470.38;10524945;28;20589;-83
2021/11/14 17:32:29;;;;;;;48.13;28.83;;;;;;;8.36;100.00;102478.94;10538217;28;20040;-83
2021/11/14 17:37:32;;;;;;;52.78;30.08;;;;;;;8.37;100.00;102485.84;10548059;28;20087;-83
2021/11/14 17:42:40;;;;;;;53.72;29.27;;;;;;;8.36;100.00;102494.41;10557870;28;20048;-83
2021/11/14 17:47:42;;;;;;;47.50;27.38;;;;;;;8.33;100.00;102498.47;10523974;28;20411;-83
2021/11/14 17:52:44;;;;;;;45.25;26.35;;;;;;;8.30;100.00;102494.06;10543642;28;20051;-83
2021/11/14 17:57:46;;;;;;;48.30;24.52;;;;;;;8.30;100.00;102494.06;10534790;28;20059;-82
2021/11/14 18:02:54;;;;;;;44.53;24.65;;;;;;;8.31;100.00;102506.13;10559773;28;20530;-82
2021/11/14 18:07:57;;;;;;;40.58;23.77;;;;;;;8.29;100.00;102509.47;10538802;28;20055;-83
2021/11/14 18:13:00;;;;;;;37.92;22.50;;;;;;;8.27;100.00;102511.94;10551547;28;20040;-82
2021/11/14 18:18:03;;;;;;;39.47;24.13;;;;;;;8.24;100.00;102509.22;10577615;28;20174;-83
2021/11/14 18:23:05;;;;;;;41.47;24.75;;;;;;;8.24;100.00;102514.38;10570391;28;20087;-83
2021/11/14 18:28:08;;;;;;;41.85;23.95;;;;;;;8.17;100.00;102515.75;10552591;28;20135;-82
2021/11/14 18:33:10;;;;;;;39.75;23.90;;;;;;;8.13;100.00;102520.66;10565199;28;20075;-83
2021/11/14 18:38:12;;;;;;;44.35;26.17;;;;;;;8.13;100.00;102529.28;10568817;28;20139;-82
2021/11/14 18:43:16;;;;;;;36.55;23.98;;;;;;;8.16;100.00;102526.84;10576867;28;20052;-83
2021/11/14 18:48:18;;;;;;;40.80;24.85;;;;;;;8.19;100.00;102532.19;10553049;28;20415;-82
2021/11/14 18:53:20;;;;;;;37.50;24.90;;;;;;;8.14;100.00;102536.19;10538150;28;20052;-83
2021/11/14 18:58:27;;;;;;;44.67;25.65;;;;;;;8.10;100.00;102535.97;10539166;28;20551;-83
2021/11/14 19:03:29;;;;;;;37.58;23.30;;;;;;;8.10;100.00;102544.56;10575583;28;20048;-83
2021/11/14 19:08:31;;;;;;;39.35;25.35;;;;;;;8.08;100.00;102553.03;10552064;28;20055;-83
2021/11/14 19:13:33;;;;;;;39.10;24.52;;;;;;;8.05;100.00;102547.72;10559624;28;20039;-83
2021/11/14 19:18:39;;;;;;;40.63;23.27;;;;;;;8.08;100.00;102540.16;10571221;28;20381;-83
2021/11/14 19:23:40;;;;;;;34.80;19.90;;;;;;;8.09;100.00;102547.97;10561958;28;20127;-83
2021/11/14 19:28:43;;;;;;;36.88;23.45;;;;;;;8.05;100.00;102556.31;10560388;28;20052;-83
2021/11/14 19:33:46;;;;;;;33.50;20.83;;;;;;;8.02;100.00;102550.16;10565220;28;20130;-84
2021/11/14 19:38:49;;;;;;;36.95;21.33;;;;;;;8.10;100.00;102556.56;10536968;28;20052;-84
2021/11/14 19:43:53;;;;;;;36.75;21.33;;;;;;;8.05;100.00;102558.91;10553184;28;20086;-84
2021/11/14 19:48:55;;;;;;;30.83;22.10;;;;;;;8.00;100.00;102560.38;10563709;28;20039;-84
2021/11/14 19:53:57;;;;;;;35.85;22.33;;;;;;;8.00;100.00;102556.88;10560473;28;20093;-84
2021/11/14 19:58:59;;;;;;;35.63;23.40;;;;;;;8.00;100.00;102556.88;10562016;28;20079;-84
2021/11/14 20:04:00;;;;;;;35.42;22.80;;;;;;;7.98;100.00;102564.56;10560362;28;20044;-83
2021/11/14 20:09:02;;;;;;;34.65;21.85;;;;;;;7.98;100.00;102567.13;10559308;28;20048;-84
2021/11/14 20:14:04;;;;;;;41.17;23.95;;;;;;;7.98;100.00;102574.84;10555912;28;20052;-84
2021/11/14 20:19:06;;;;;;;40.42;24.13;;;;;;;7.97;100.00;102580.81;10562840;28;20074;-84
2021/11/14 20:24:08;;;;;;;36.00;21.77;;;;;;;7.94;100.00;102584.13;10562912;28;20059;-84
2021/11/14 20:29:09;;;;;;;32.95;20.15;;;;;;;7.91;100.00;102581.38;10552756;28;20054;-84
2021/11/14 20:34:11;;;;;;;39.33;23.80;;;;;;;7.88;100.00;102576.03;10556232;28;20120;-84
2021/11/14 20:39:13;;;;;;;36.92;22.77;;;;;;;7.91;100.00;102575.34;10559985;28;20075;-84
2021/11/14 20:44:15;;;;;;;37.90;22.40;;;;;;;7.88;100.00;102572.59;10547460;28;20048;-84
2021/11/14 20:49:17;;;;;;;41.90;23.52;;;;;;;7.86;100.00;102566.47;10555186;28;20040;-84
2021/11/14 20:54:21;;;;;;;36.63;22.10;;;;;;;7.85;100.00;102580.16;10560800;28;20054;-84
2021/11/14 20:59:26;;;;;;;45.00;24.80;;;;;;;7.83;100.00;102582.66;10566536;28;20109;-84
2021/11/14 21:04:27;;;;;;;44.35;25.48;;;;;;;7.81;100.00;102581.69;10551902;28;20055;-83
2021/11/14 21:09:29;;;;;;;44.00;26.77;;;;;;;7.84;100.00;102581.88;10556823;28;20056;-84
2021/11/14 21:14:31;;;;;;;44.50;25.48;;;;;;;7.82;100.00;102580.00;10574406;28;20044;-84
2021/11/14 21:19:33;;;;;;;37.78;22.73;;;;;;;7.82;100.00;102587.72;10577980;28;20059;-84
2021/11/14 21:24:35;;;;;;;37.88;23.33;;;;;;;7.82;100.00;102601.47;10581569;28;20043;-84
2021/11/14 21:29:37;;;;;;;41.10;24.13;;;;;;;7.80;100.00;102607.38;10572540;28;20058;-84
2021/11/14 21:40:04;;;;;;;44.55;25.55;;;;;;;7.78;100.00;102601.25;10563916;28;20044;-84
2021/11/14 21:45:09;;;;;;;35.88;23.50;;;;;;;7.76;100.00;102605.41;10562408;28;20052;-84
2021/11/14 21:50:14;;;;;;;46.97;23.38;;;;;;;7.74;100.00;102607.03;10558482;28;20466;-84
2021/11/14 21:55:19;;;;;;;37.60;22.65;;;;;;;7.69;100.00;102594.78;10581307;28;20051;-84
2021/11/14 22:00:21;;;;;;;39.85;22.58;;;;;;;7.68;100.00;102611.03;10584763;28;20062;-84
2021/11/14 22:05:24;;;;;;;32.33;20.30;;;;;;;7.67;100.00;102600.66;10570049;28;20047;-83
2021/11/14 22:10:25;;;;;;;39.20;21.38;;;;;;;7.63;100.00;102601.28;10557837;28;20048;-83
2021/11/14 22:15:27;;;;;;;31.52;20.60;;;;;;;7.62;100.00;102599.53;10567553;28;20127;-84
2021/11/14 22:20:29;;;;;;;34.08;19.88;;;;;;;7.63;100.00;102594.44;10553393;28;20047;-83
2021/11/14 22:25:31;;;;;;;33.33;19.75;;;;;;;7.62;100.00;102608.13;10578641;28;20048;-84
2021/11/14 22:30:32;;;;;;;31.25;18.33;;;;;;;7.62;100.00;102600.41;10566133;28;20511;-84
2021/11/14 22:35:34;;;;;;;31.17;18.95;;;;;;;7.61;100.00;102600.34;10577943;28;20098;-84
2021/11/14 22:40:37;;;;;;;28.98;17.77;;;;;;;7.54;100.00;102601.66;10571499;28;20104;-83
2021/11/14 22:45:54;;;;;;;27.98;17.63;;;;;;;7.55;100.00;102592.28;10558202;28;20058;-84